Time;durP1;ratioP1;P1;durP2;ratioP2;P2;SDS_P1;SDS_P2;PMS_P1;PMS_P2;Temp;Humidity;BMP_temperature;BMP_pressure;BME280_temperature;BME280_humidity;BME280_pressure;Samples;Min_cycle;Max_cycle;Signal;HPM_P1;HPM_P2
2022/08/24 00:01:26;;;;;;;14.35;10.30;;;;;;;19.66;100.00;94469.13;6118867;23;20191;-81
2022/08/24 00:03:56;;;;;;;14.30;10.32;;;;;;;19.49;100.00;94465.34;6119771;23;20173;-82
2022/08/24 00:06:24;;;;;;;15.85;10.60;;;;;;;19.40;100.00;94472.28;6119450;23;20176;-82
2022/08/24 00:08:53;;;;;;;18.93;11.43;;;;;;;19.35;100.00;94478.34;6119572;23;20172;-82
2022/08/24 00:11:20;;;;;;;14.85;11.10;;;;;;;19.23;100.00;94468.19;6119439;23;20169;-83
2022/08/24 00:13:49;;;;;;;18.10;10.87;;;;;;;19.24;100.00;94475.03;6118824;23;20172;-84
2022/08/24 00:16:16;;;;;;;19.10;13.77;;;;;;;19.22;100.00;94477.13;6119440;23;20176;-83
2022/08/24 00:18:44;;;;;;;22.20;15.60;;;;;;;19.05;100.00;94482.00;6120978;23;20168;-82
2022/08/24 00:21:11;;;;;;;25.38;18.38;;;;;;;19.01;100.00;94477.56;6120878;23;20168;-82
2022/08/24 00:23:38;;;;;;;30.10;19.50;;;;;;;19.07;100.00;94485.16;6120828;23;20180;-82
2022/08/24 00:26:06;;;;;;;23.65;18.23;;;;;;;19.17;100.00;94494.84;6120709;23;20171;-80
2022/08/24 00:28:33;;;;;;;24.50;16.77;;;;;;;19.14;100.00;94500.66;6120853;23;20172;-80
2022/08/24 00:31:01;;;;;;;24.45;15.30;;;;;;;19.10;100.00;94495.16;6121109;23;20255;-81
2022/08/24 00:33:28;;;;;;;23.98;16.05;;;;;;;19.07;100.00;94503.63;6120855;23;20200;-81
2022/08/24 00:35:55;;;;;;;26.15;16.95;;;;;;;19.11;100.00;94506.47;6121109;23;20168;-82
2022/08/24 00:38:22;;;;;;;25.02;16.67;;;;;;;19.13;100.00;94504.38;6121068;23;20176;-82
2022/08/24 00:40:49;;;;;;;27.10;17.48;;;;;;;19.11;100.00;94504.63;6120280;23;20191;-81
2022/08/24 00:43:20;;;;;;;28.97;17.30;;;;;;;19.15;100.00;94502.22;6120037;23;20175;-80
2022/08/24 06:49:36;;;;;;;9.80;6.88;;;;;;;21.16;100.00;94596.31;6104837;23;20207;-74
2022/08/24 06:52:43;;;;;;;12.25;7.65;;;;;;;21.23;100.00;94600.19;6066955;23;20449;-74
2022/08/24 06:55:48;;;;;;;10.65;7.22;;;;;;;21.35;100.00;94607.72;6082296;23;20177;-75
2022/08/24 06:58:52;;;;;;;13.25;7.38;;;;;;;21.38;100.00;94609.78;6084293;23;20561;-78
2022/08/24 07:01:55;;;;;;;11.68;7.47;;;;;;;21.57;100.00;94605.25;6084106;23;20614;-74
2022/08/24 07:04:59;;;;;;;11.30;7.57;;;;;;;21.76;100.00;94615.84;6084233;23;20258;-74
2022/08/24 07:08:04;;;;;;;13.90;7.43;;;;;;;21.74;100.00;94617.97;6082062;23;20640;-73
2022/08/24 07:11:09;;;;;;;13.38;6.85;;;;;;;21.82;100.00;94617.31;6083508;23;20173;-74
2022/08/24 07:14:15;;;;;;;11.63;7.78;;;;;;;21.87;100.00;94625.19;6072623;23;20208;-74
2022/08/24 07:17:20;;;;;;;11.20;7.20;;;;;;;21.89;100.00;94623.06;6082914;23;20238;-74
2022/08/24 07:20:25;;;;;;;12.10;8.00;;;;;;;21.99;100.00;94633.50;6081641;23;20173;-74
2022/08/24 07:23:30;;;;;;;11.15;7.28;;;;;;;22.08;100.00;94630.97;6082885;23;20173;-74
2022/08/24 07:26:34;;;;;;;11.65;7.40;;;;;;;22.14;100.00;94633.22;6083620;23;20180;-74
2022/08/24 07:29:39;;;;;;;14.65;6.88;;;;;;;22.17;100.00;94635.31;6084652;23;20206;-74
2022/08/24 07:32:43;;;;;;;10.23;6.85;;;;;;;22.28;100.00;94634.06;6084509;23;20173;-72
2022/08/24 07:35:48;;;;;;;10.98;6.72;;;;;;;22.42;100.00;94637.50;6085327;23;20223;-78
2022/08/24 07:38:52;;;;;;;10.02;6.88;;;;;;;22.45;100.00;94626.31;6085258;23;20264;-74
2022/08/24 07:41:56;;;;;;;7.88;6.32;;;;;;;22.58;100.00;94628.22;6084830;23;20169;-73
2022/08/24 07:45:00;;;;;;;11.85;6.90;;;;;;;22.59;100.00;94632.47;6086860;23;20179;-74
2022/08/24 07:48:05;;;;;;;9.15;6.68;;;;;;;22.54;100.00;94632.53;6088792;23;20179;-77
2022/08/24 07:51:09;;;;;;;10.02;6.50;;;;;;;22.54;100.00;94621.94;6099809;23;20765;-74
2022/08/24 07:54:14;;;;;;;8.77;6.50;;;;;;;22.59;100.00;94627.16;6117555;23;20245;-73
2022/08/24 07:57:18;;;;;;;11.43;7.43;;;;;;;22.67;100.00;94622.28;6116904;23;20203;-73
2022/08/24 08:00:22;;;;;;;9.93;7.47;;;;;;;22.77;100.00;94616.78;6115056;23;20184;-74
2022/08/24 08:03:35;;;;;;;11.77;7.05;;;;;;;22.84;100.00;94617.16;6116642;23;20644;-74
2022/08/24 08:06:39;;;;;;;10.40;6.43;;;;;;;23.08;100.00;94626.50;6117635;23;20258;-74
2022/08/24 08:09:43;;;;;;;9.32;6.78;;;;;;;23.10;100.00;94618.22;6117910;23;20168;-73
2022/08/24 08:12:47;;;;;;;7.00;6.15;;;;;;;23.33;100.00;94616.41;6117389;23;20175;-74
2022/08/24 08:15:51;;;;;;;8.40;6.32;;;;;;;23.38;98.82;94621.63;6117899;23;20519;-74
2022/08/24 08:18:55;;;;;;;10.80;5.90;;;;;;;23.47;98.29;94611.91;6117417;23;20168;-74
2022/08/24 08:25:21;;;;;;;7.30;5.88;;;;;;;23.62;97.46;94611.56;6116636;23;20175;-74
2022/08/24 08:28:33;;;;;;;9.25;5.82;;;;;;;23.80;97.33;94607.19;6118402;23;20486;-74
2022/08/24 08:31:40;;;;;;;7.57;5.82;;;;;;;23.98;96.36;94614.19;6115932;23;20226;-73
2022/08/24 08:34:45;;;;;;;7.80;5.68;;;;;;;24.05;95.74;94614.53;6116402;23;20196;-73
2022/08/24 08:37:49;;;;;;;8.13;5.47;;;;;;;24.24;95.29;94612.50;6119324;23;20172;-75
2022/08/24 08:40:59;;;;;;;7.25;5.55;;;;;;;24.36;95.49;94604.72;6119082;23;20172;-74
2022/08/24 08:44:03;;;;;;;8.60;5.40;;;;;;;24.46;93.81;94612.47;6116225;23;20549;-81
2022/08/24 08:47:07;;;;;;;8.00;5.90;;;;;;;24.52;94.38;94605.13;6115828;23;21081;-81
2022/08/24 08:50:11;;;;;;;10.80;5.32;;;;;;;24.57;92.83;94607.66;6116756;23;20175;-79
2022/08/24 08:53:15;;;;;;;7.45;4.97;;;;;;;24.77;89.53;94612.44;6114142;23;20202;-81
2022/08/24 08:56:20;;;;;;;5.40;4.40;;;;;;;24.80;85.08;94609.19;6114497;23;20259;-80
2022/08/24 08:59:24;;;;;;;7.07;4.38;;;;;;;24.91;86.45;94610.47;6114985;23;20172;-81
2022/08/24 09:02:28;;;;;;;5.80;4.38;;;;;;;25.01;86.96;94598.78;6115681;23;20183;-81
2022/08/24 09:05:32;;;;;;;6.13;4.50;;;;;;;25.16;86.61;94615.09;6113547;23;20175;-80
2022/08/24 09:08:36;;;;;;;8.35;4.50;;;;;;;25.26;84.95;94609.47;6114547;23;20195;-79
2022/08/24 09:11:40;;;;;;;10.88;5.13;;;;;;;25.35;85.31;94614.81;6115198;23;20182;-79
2022/08/24 09:14:44;;;;;;;7.18;4.22;;;;;;;25.53;85.15;94612.97;6114399;23;20192;-80
2022/08/24 09:17:49;;;;;;;5.72;4.43;;;;;;;25.68;84.15;94615.19;6114356;23;20769;-78
2022/08/24 09:20:53;;;;;;;9.00;3.70;;;;;;;25.82;84.75;94613.13;6112050;23;20179;-77
2022/08/24 09:23:59;;;;;;;16.52;7.63;;;;;;;26.07;85.09;94615.00;6114468;23;20168;-78
2022/08/24 09:27:04;;;;;;;12.88;5.57;;;;;;;26.13;84.39;94611.06;6114273;23;20255;-79
2022/08/24 09:30:09;;;;;;;8.52;5.20;;;;;;;26.28;82.03;94610.59;6113906;23;20172;-79
2022/08/24 09:33:15;;;;;;;8.63;4.78;;;;;;;26.39;80.78;94603.03;6114362;23;20207;-79
2022/08/24 09:36:19;;;;;;;9.05;5.15;;;;;;;26.47;81.06;94600.34;6112798;23;20538;-79
2022/08/24 09:39:24;;;;;;;8.48;4.90;;;;;;;26.39;79.09;94601.16;6115222;23;20204;-79
2022/08/24 09:42:29;;;;;;;7.78;4.47;;;;;;;26.38;80.42;94590.78;6114389;23;20515;-77
2022/08/24 09:45:33;;;;;;;7.18;5.45;;;;;;;26.49;80.95;94592.03;6115630;23;20203;-79
2022/08/24 09:48:38;;;;;;;6.05;4.60;;;;;;;26.59;79.01;94594.34;6113248;23;20939;-78
2022/08/24 09:51:42;;;;;;;11.55;5.15;;;;;;;26.69;78.98;94588.69;6115253;23;20228;-80
2022/08/24 09:54:46;;;;;;;8.02;4.93;;;;;;;26.70;77.78;94578.75;6113923;23;20202;-81
2022/08/24 09:57:51;;;;;;;8.35;4.20;;;;;;;26.59;77.33;94582.88;6114441;23;20255;-82
2022/08/24 10:00:55;;;;;;;6.70;4.75;;;;;;;26.78;75.18;94569.97;6114685;23;20182;-82
2022/08/24 10:04:00;;;;;;;8.38;4.35;;;;;;;27.03;75.51;94569.84;6115121;23;20602;-81
2022/08/24 10:07:04;;;;;;;8.43;4.75;;;;;;;27.10;74.28;94563.22;6116244;23;20226;-81
2022/08/24 10:10:08;;;;;;;4.35;3.90;;;;;;;27.21;73.35;94565.19;6115328;23;20176;-80
2022/08/24 10:13:11;;;;;;;7.05;4.60;;;;;;;27.46;72.39;94555.44;6115072;23;20172;-81
2022/08/24 10:16:15;;;;;;;6.55;4.70;;;;;;;27.69;69.45;94548.66;6115853;23;20168;-80
2022/08/24 10:19:20;;;;;;;8.20;5.00;;;;;;;28.03;70.91;94547.53;6116559;23;20183;-80
2022/08/24 10:22:24;;;;;;;7.15;3.60;;;;;;;28.28;70.24;94543.88;6115381;23;20175;-81
2022/08/24 10:25:27;;;;;;;6.97;4.00;;;;;;;28.68;69.00;94549.41;6114386;23;20168;-81
2022/08/24 10:28:32;;;;;;;6.38;4.18;;;;;;;28.77;65.82;94542.03;6115792;23;20504;-80
2022/08/24 10:31:37;;;;;;;7.13;4.57;;;;;;;28.63;66.74;94546.91;6116418;23;20506;-82
2022/08/24 10:34:40;;;;;;;8.40;4.65;;;;;;;28.82;67.74;94549.06;6115404;23;20195;-74
2022/08/24 10:37:45;;;;;;;5.00;3.55;;;;;;;29.02;67.32;94543.59;6113994;23;20728;-76
2022/08/24 10:40:48;;;;;;;8.57;4.53;;;;;;;29.18;68.05;94551.69;6112028;23;20183;-75
2022/08/24 10:43:52;;;;;;;9.18;4.85;;;;;;;29.22;66.13;94547.22;6112629;23;20174;-75
2022/08/24 10:46:56;;;;;;;7.05;4.40;;;;;;;29.26;65.60;94553.50;6107366;23;20172;-75
2022/08/24 10:50:00;;;;;;;5.90;4.43;;;;;;;29.04;66.14;94544.03;6111973;23;20172;-75
2022/08/24 10:53:04;;;;;;;7.47;4.40;;;;;;;29.34;64.90;94549.13;6112172;23;20160;-75
2022/08/24 10:56:09;;;;;;;8.13;4.63;;;;;;;29.71;64.71;94546.00;6111305;23;20179;-74
2022/08/24 10:59:13;;;;;;;7.03;4.97;;;;;;;30.11;62.26;94553.22;6111276;23;20251;-75
2022/08/24 11:02:17;;;;;;;5.88;4.45;;;;;;;30.33;62.01;94544.63;6111405;23;20527;-75
2022/08/24 11:05:21;;;;;;;9.77;4.55;;;;;;;30.25;61.06;94550.91;6111760;23;20206;-75
2022/08/24 11:08:25;;;;;;;8.15;4.40;;;;;;;30.00;63.89;94546.81;6110307;23;20211;-75
2022/08/24 11:11:29;;;;;;;9.75;4.70;;;;;;;29.48;64.76;94546.88;6111812;23;20233;-75
2022/08/24 11:14:34;;;;;;;9.18;3.85;;;;;;;28.82;68.23;94543.69;6112884;23;20235;-75
2022/08/24 11:17:38;;;;;;;6.70;4.57;;;;;;;28.52;69.08;94546.56;6110020;23;20663;-75
2022/08/24 11:20:42;;;;;;;8.75;4.57;;;;;;;28.32;69.23;94535.94;6111613;23;20631;-74
2022/08/24 11:23:47;;;;;;;6.72;3.90;;;;;;;28.03;69.74;94526.16;6110887;23;20171;-72
2022/08/24 11:26:47;;;;;;;10.25;5.00;;;;;;;27.84;71.20;94526.69;6110701;23;20655;-75
2022/08/24 11:29:14;;;;;;;9.70;4.75;;;;;;;28.30;70.71;94530.94;6113263;23;20163;-76
2022/08/24 11:31:44;;;;;;;8.18;4.60;;;;;;;28.54;69.66;94528.28;6111057;23;20183;-77
2022/08/24 11:34:15;;;;;;;9.05;4.72;;;;;;;28.52;69.50;94529.72;6111756;23;20193;-74
2022/08/24 11:36:42;;;;;;;9.65;4.75;;;;;;;28.45;69.72;94518.81;6112464;23;20161;-76
2022/08/24 11:39:18;;;;;;;7.35;4.50;;;;;;;28.72;68.70;94517.41;6112669;23;20172;-77
2022/08/24 11:41:57;;;;;;;6.80;4.20;;;;;;;28.81;69.11;94520.72;6111697;23;20168;-76
2022/08/24 11:44:39;;;;;;;10.15;4.82;;;;;;;28.58;69.02;94520.38;6110584;23;20620;-76
2022/08/24 11:47:29;;;;;;;8.02;4.85;;;;;;;28.66;69.32;94519.50;6110741;23;20769;-77
2022/08/24 11:50:06;;;;;;;7.20;4.53;;;;;;;28.67;69.32;94521.06;6110850;23;20689;-76
2022/08/24 11:52:52;;;;;;;7.80;4.38;;;;;;;28.69;68.65;94521.50;6110797;23;20912;-78
2022/08/24 11:55:26;;;;;;;17.73;5.20;;;;;;;28.54;70.09;94520.25;6112466;23;20167;-78
2022/08/24 11:58:06;;;;;;;8.55;4.45;;;;;;;28.37;70.05;94519.69;6110574;23;20627;-78
2022/08/24 12:00:45;;;;;;;6.53;4.50;;;;;;;28.16;71.46;94527.81;6112196;23;20615;-78
2022/08/24 12:03:29;;;;;;;12.07;5.25;;;;;;;28.24;70.65;94512.75;6113341;23;20473;-78
2022/08/24 12:06:01;;;;;;;9.65;5.20;;;;;;;28.13;70.98;94509.75;6111999;23;20160;-79
2022/08/24 12:08:35;;;;;;;8.20;5.03;;;;;;;28.11;71.62;94514.63;6113210;23;20157;-78
2022/08/24 12:11:12;;;;;;;13.02;5.60;;;;;;;27.98;71.96;94526.38;6112904;23;20171;-77
2022/08/24 12:13:49;;;;;;;8.25;5.03;;;;;;;27.82;72.27;94514.75;6114630;23;20180;-79
2022/08/24 12:16:22;;;;;;;11.25;6.03;;;;;;;27.74;72.04;94523.63;6112508;23;20607;-76
2022/08/24 12:18:56;;;;;;;7.13;5.05;;;;;;;27.84;72.13;94520.56;6112731;23;20163;-76
2022/08/24 12:21:27;;;;;;;10.02;4.88;;;;;;;28.27;71.13;94506.75;6113390;23;20161;-76
2022/08/24 12:23:58;;;;;;;11.40;5.10;;;;;;;28.76;69.26;94510.25;6112471;23;20644;-76
2022/08/24 12:26:29;;;;;;;11.20;5.47;;;;;;;29.23;67.83;94503.31;6103679;23;20161;-77
2022/08/24 12:29:03;;;;;;;7.25;5.10;;;;;;;29.44;65.97;94505.81;6110073;23;20233;-76
2022/08/24 12:31:38;;;;;;;6.72;4.70;;;;;;;29.54;66.71;94506.09;6113096;23;20167;-77
2022/08/24 12:34:10;;;;;;;11.40;5.15;;;;;;;29.48;66.85;94498.66;6114358;23;20218;-77
2022/08/24 12:36:46;;;;;;;8.68;5.40;;;;;;;29.32;67.52;94498.59;6113347;23;20181;-78
2022/08/24 12:39:21;;;;;;;13.18;5.78;;;;;;;28.99;68.50;94495.28;6113646;23;20546;-76
2022/08/24 12:41:58;;;;;;;14.50;6.00;;;;;;;28.92;69.17;94492.41;6113808;23;20164;-76
2022/08/24 12:44:35;;;;;;;17.63;6.10;;;;;;;28.81;69.86;94500.09;6114006;23;20552;-76
2022/08/24 12:47:02;;;;;;;9.77;5.95;;;;;;;28.55;69.41;94499.63;6113217;23;20237;-77
2022/08/24 12:49:35;;;;;;;11.73;5.75;;;;;;;28.33;70.78;94508.88;6112905;23;20185;-77
2022/08/24 12:52:20;;;;;;;9.00;5.75;;;;;;;28.06;71.30;94496.91;6112351;23;20195;-77
2022/08/24 12:55:10;;;;;;;11.82;5.60;;;;;;;28.00;71.97;94511.56;6111771;23;20627;-78
2022/08/24 12:57:50;;;;;;;10.38;5.95;;;;;;;28.10;73.24;94503.19;6112904;23;20740;-76
2022/08/24 13:00:22;;;;;;;12.70;5.15;;;;;;;27.97;71.57;94488.19;6112079;23;20167;-76
2022/08/24 13:02:57;;;;;;;10.27;5.60;;;;;;;27.92;71.45;94495.63;6110932;23;20164;-78
2022/08/24 13:05:24;;;;;;;9.63;5.53;;;;;;;28.09;71.77;94493.59;6112512;23;20178;-78
2022/08/24 13:07:54;;;;;;;8.68;5.45;;;;;;;28.07;71.39;94495.81;6111900;23;20169;-77
2022/08/24 13:10:38;;;;;;;7.38;5.43;;;;;;;28.38;71.43;94507.88;6111042;23;20222;-76
2022/08/24 13:13:15;;;;;;;13.32;5.72;;;;;;;28.91;69.79;94515.72;6113552;23;20168;-74
2022/08/24 13:16:01;;;;;;;11.10;5.60;;;;;;;28.87;69.10;94514.81;6111484;23;20160;-75
2022/08/24 13:18:52;;;;;;;10.68;6.07;;;;;;;28.65;70.80;94520.63;6111972;23;20171;-74
2022/08/24 13:21:43;;;;;;;9.05;5.43;;;;;;;28.42;71.69;94520.25;6112478;23;20165;-75
2022/08/24 13:24:46;;;;;;;8.32;5.60;;;;;;;28.10;72.13;94532.59;6112847;23;20179;-76
2022/08/24 13:27:47;;;;;;;10.30;5.72;;;;;;;27.60;72.80;94531.94;6114208;23;20179;-76
2022/08/24 13:30:27;;;;;;;9.95;6.05;;;;;;;27.35;73.72;94533.69;6113057;23;20167;-76
2022/08/24 13:33:04;;;;;;;10.57;6.03;;;;;;;27.13;74.59;94533.97;6112977;23;20965;-74
2022/08/24 13:35:57;;;;;;;12.50;6.13;;;;;;;26.85;76.20;94536.34;6112497;23;20750;-75
2022/08/24 13:38:58;;;;;;;8.60;6.25;;;;;;;26.66;76.82;94527.19;6111427;23;20176;-75
2022/08/24 13:41:41;;;;;;;13.05;6.50;;;;;;;26.67;77.17;94537.50;6113410;23;20179;-73
2022/08/24 13:44:17;;;;;;;12.88;6.65;;;;;;;26.43;77.42;94540.78;6112919;23;20172;-75
2022/08/24 13:46:52;;;;;;;8.48;6.30;;;;;;;26.36;77.53;94545.81;6112882;23;20253;-80
2022/08/24 13:49:36;;;;;;;14.32;6.65;;;;;;;26.33;78.32;94532.34;6114168;23;20168;-80
2022/08/24 13:52:14;;;;;;;10.73;6.07;;;;;;;26.45;78.38;94524.44;6115318;23;20165;-83
2022/08/24 13:54:49;;;;;;;11.88;5.50;;;;;;;26.59;77.92;94530.34;6114625;23;20216;-84
2022/08/24 13:57:34;;;;;;;12.95;6.20;;;;;;;26.66;77.33;94525.31;6118392;23;20160;-84
2022/08/24 14:00:32;;;;;;;14.32;6.43;;;;;;;26.98;76.19;94521.97;6117143;23;20314;-78
2022/08/24 14:03:13;;;;;;;10.10;6.32;;;;;;;27.33;74.92;94511.09;6116479;23;20553;-83
2022/08/24 14:05:52;;;;;;;25.25;6.65;;;;;;;27.54;73.78;94519.88;6116412;23;20511;-84
2022/08/24 14:08:36;;;;;;;10.85;5.88;;;;;;;27.72;73.12;94515.94;6116764;23;20178;-84
2022/08/24 14:11:10;;;;;;;12.02;6.45;;;;;;;27.93;72.76;94518.56;6117222;23;20161;-84
2022/08/24 14:13:52;;;;;;;13.82;7.00;;;;;;;28.24;72.60;94513.53;6117578;23;20167;-83
2022/08/24 14:19:31;;;;;;;14.80;6.60;;;;;;;28.98;69.16;94501.75;6116945;23;20160;-84
2022/08/24 14:22:12;;;;;;;9.80;6.13;;;;;;;29.24;68.27;94513.66;6116571;23;20164;-84
2022/08/24 14:24:44;;;;;;;8.13;5.72;;;;;;;29.46;67.81;94516.97;6115338;23;20167;-84
2022/08/24 14:27:37;;;;;;;11.10;6.10;;;;;;;29.50;67.62;94517.81;6112357;23;20611;-84
2022/08/24 14:30:52;;;;;;;16.20;6.80;;;;;;;29.50;66.83;94517.81;6113820;23;20160;-85
2022/08/24 14:33:27;;;;;;;13.27;6.97;;;;;;;29.46;65.88;94525.78;6113643;23;20167;-84
2022/08/24 14:36:14;;;;;;;9.82;6.00;;;;;;;29.42;66.22;94538.28;6116003;23;20188;-83
2022/08/24 14:38:57;;;;;;;13.55;6.22;;;;;;;29.10;66.96;94526.59;6116661;23;20169;-83
2022/08/24 14:41:43;;;;;;;11.02;6.13;;;;;;;29.00;68.02;94532.44;6117243;23;20503;-84
2022/08/24 14:44:43;;;;;;;10.70;6.30;;;;;;;28.61;68.32;94525.06;6116735;23;20475;-84
2022/08/24 14:47:22;;;;;;;12.45;6.13;;;;;;;28.22;69.88;94531.81;6118137;23;20183;-85
2022/08/24 14:50:08;;;;;;;15.50;6.22;;;;;;;28.06;70.38;94539.69;6117260;23;20160;-84
2022/08/24 14:52:52;;;;;;;14.27;6.68;;;;;;;27.91;70.65;94540.28;6117938;23;20160;-84
2022/08/24 14:55:30;;;;;;;14.35;5.93;;;;;;;27.73;71.29;94538.09;6116982;23;20176;-84
2022/08/24 14:58:21;;;;;;;16.48;6.03;;;;;;;27.44;72.17;94539.78;6116915;23;20156;-85
2022/08/24 15:00:58;;;;;;;16.50;6.82;;;;;;;27.29;72.85;94534.97;6117050;23;20157;-82
2022/08/24 15:03:51;;;;;;;18.60;6.35;;;;;;;27.07;73.82;94534.50;6117481;23;20507;-84
2022/08/24 15:06:25;;;;;;;17.48;6.30;;;;;;;26.98;74.06;94534.56;6116302;23;20604;-85
2022/08/24 15:09:08;;;;;;;23.02;6.60;;;;;;;26.80;74.89;94528.56;6116970;23;20159;-83
2022/08/24 15:11:40;;;;;;;17.15;6.75;;;;;;;26.64;75.61;94527.50;6116214;23;20171;-83
2022/08/24 15:14:13;;;;;;;16.73;6.45;;;;;;;26.59;75.85;94525.00;6117671;23;20161;-86
2022/08/24 15:16:47;;;;;;;14.70;6.22;;;;;;;26.46;75.79;94515.34;6117384;23;20508;-85
2022/08/24 15:19:22;;;;;;;21.13;6.47;;;;;;;26.27;77.29;94531.72;6115999;23;20157;-85
2022/08/24 15:21:56;;;;;;;15.43;6.82;;;;;;;26.27;76.74;94529.06;6116680;23;20192;-83
2022/08/24 15:24:34;;;;;;;22.88;7.18;;;;;;;26.17;76.95;94524.09;6116428;23;20192;-84
2022/08/24 15:27:16;;;;;;;15.38;6.97;;;;;;;26.11;76.98;94528.00;6116522;23;20171;-84
2022/08/24 15:29:50;;;;;;;24.55;6.65;;;;;;;26.00;77.81;94536.66;6116238;23;20511;-86
2022/08/24 15:32:17;;;;;;;17.55;6.47;;;;;;;25.97;78.28;94543.41;6115779;23;20163;-84
2022/08/24 15:34:47;;;;;;;17.45;6.65;;;;;;;25.85;79.36;94549.38;6115726;23;20203;-86
2022/08/24 15:37:16;;;;;;;26.30;7.35;;;;;;;25.76;80.39;94537.94;6116460;23;20184;-85
2022/08/24 15:39:43;;;;;;;14.45;6.57;;;;;;;25.82;79.90;94547.34;6115783;23;20224;-86
2022/08/24 15:42:15;;;;;;;15.60;6.03;;;;;;;25.94;79.48;94544.03;6116315;23;20684;-86
2022/08/24 15:44:45;;;;;;;17.13;6.63;;;;;;;25.91;79.63;94540.13;6115296;23;20156;-85
2022/08/24 15:47:24;;;;;;;20.98;6.22;;;;;;;25.87;79.94;94525.84;6113761;23;20620;-84
2022/08/24 15:49:55;;;;;;;17.13;6.68;;;;;;;25.91;80.18;94531.34;6115070;23;20226;-84
2022/08/24 15:52:41;;;;;;;16.88;6.93;;;;;;;25.88;80.45;94538.09;6115921;23;20542;-85
2022/08/24 15:55:26;;;;;;;21.73;7.57;;;;;;;25.83;81.01;94537.47;6115134;23;20203;-85
2022/08/24 15:57:56;;;;;;;11.43;6.85;;;;;;;25.89;80.57;94541.50;6116234;23;20161;-85
2022/08/24 16:03:21;;;;;;;15.32;6.65;;;;;;;25.82;81.13;94550.00;6116160;23;20557;-85
2022/08/24 16:05:49;;;;;;;23.02;7.57;;;;;;;25.75;81.65;94552.34;6116070;23;20168;-84
2022/08/24 16:08:17;;;;;;;14.80;6.65;;;;;;;25.71;81.90;94551.44;6115769;23;20165;-84
2022/08/24 16:10:47;;;;;;;21.33;7.18;;;;;;;25.64;82.47;94551.09;6116399;23;20175;-85
2022/08/24 16:13:28;;;;;;;12.18;6.50;;;;;;;25.60;82.57;94555.47;6115421;23;20649;-84
2022/08/24 16:16:01;;;;;;;18.75;6.40;;;;;;;25.51;82.89;94537.97;6115469;23;20180;-86
2022/08/24 16:18:45;;;;;;;19.77;7.15;;;;;;;25.53;83.52;94552.53;6115707;23;20608;-85
2022/08/24 16:21:15;;;;;;;18.02;7.05;;;;;;;25.39;84.07;94550.00;6116646;23;20156;-85
2022/08/24 16:23:46;;;;;;;18.50;7.20;;;;;;;25.39;84.66;94552.66;6116575;23;20160;-84
2022/08/24 16:26:21;;;;;;;23.83;7.22;;;;;;;25.42;84.49;94556.56;6116452;23;20172;-85
2022/08/24 16:28:52;;;;;;;28.05;7.43;;;;;;;25.33;84.81;94561.91;6115937;23;20172;-85
2022/08/24 16:31:48;;;;;;;17.52;7.45;;;;;;;25.34;84.97;94562.66;6116229;23;20251;-85
2022/08/24 16:34:22;;;;;;;17.08;6.15;;;;;;;25.35;84.96;94561.56;6116130;23;20169;-85
2022/08/24 16:36:49;;;;;;;24.25;7.50;;;;;;;25.30;85.20;94567.84;6116822;23;20604;-85
2022/08/24 16:39:16;;;;;;;30.85;13.02;;;;;;;25.30;85.00;94564.38;6115884;23;20169;-85
2022/08/24 16:41:43;;;;;;;28.90;8.82;;;;;;;25.34;84.90;94560.00;6115053;23;20183;-86
2022/08/24 16:44:12;;;;;;;25.83;7.97;;;;;;;25.27;85.08;94557.81;6115315;23;20187;-86
2022/08/24 16:46:40;;;;;;;23.98;7.40;;;;;;;25.17;85.36;94554.66;6115816;23;20188;-85
2022/08/24 16:49:07;;;;;;;20.50;7.05;;;;;;;25.10;86.23;94557.81;6115447;23;20824;-85
2022/08/24 16:51:34;;;;;;;17.40;6.68;;;;;;;25.05;86.68;94554.50;6114817;23;20211;-86
2022/08/24 16:54:01;;;;;;;26.80;7.93;;;;;;;25.09;86.32;94555.44;6114702;23;20176;-85
2022/08/24 16:56:28;;;;;;;25.67;7.28;;;;;;;25.13;86.36;94556.38;6116692;23;20203;-85
2022/08/24 16:58:55;;;;;;;26.02;7.18;;;;;;;25.13;85.88;94548.41;6116728;23;20172;-85
2022/08/24 17:01:24;;;;;;;26.75;8.20;;;;;;;25.10;86.19;94557.00;6116179;23;20218;-86
2022/08/24 17:03:51;;;;;;;26.60;8.35;;;;;;;25.07;86.11;94568.28;6115921;23;20180;-84
2022/08/24 17:06:19;;;;;;;32.65;8.30;;;;;;;24.91;86.93;94569.78;6114205;23;20995;-85
2022/08/24 17:08:47;;;;;;;37.72;8.18;;;;;;;24.80;87.56;94582.59;6114113;23;20636;-85
2022/08/24 17:11:14;;;;;;;38.53;8.48;;;;;;;24.81;87.30;94587.63;6115192;23;20321;-85
2022/08/24 17:13:41;;;;;;;29.95;8.30;;;;;;;24.66;88.31;94590.66;6117098;23;20195;-85
2022/08/24 17:16:10;;;;;;;31.05;9.63;;;;;;;24.59;88.14;94594.84;6116811;23;20224;-86
2022/08/24 17:18:40;;;;;;;29.17;9.23;;;;;;;24.48;89.09;94590.88;6114927;23;20176;-86
2022/08/24 17:21:07;;;;;;;32.38;9.05;;;;;;;24.33;90.13;94591.28;6117450;23;20623;-86
2022/08/24 17:23:34;;;;;;;36.47;8.88;;;;;;;24.24;90.26;94599.22;6117379;23;20176;-82
2022/08/24 17:26:03;;;;;;;27.65;8.40;;;;;;;24.28;90.94;94592.19;6117099;23;20172;-89
2022/08/24 17:28:30;;;;;;;36.88;8.63;;;;;;;24.42;90.42;94600.84;6117009;23;20554;-86
2022/08/24 17:30:56;;;;;;;33.83;8.50;;;;;;;24.45;89.72;94610.09;6115953;23;20243;-84
2022/08/24 17:33:23;;;;;;;32.03;8.30;;;;;;;24.43;89.43;94597.13;6115909;23;20172;-85
2022/08/24 17:35:54;;;;;;;25.38;8.00;;;;;;;24.42;89.01;94600.06;6117183;23;20743;-87
2022/08/24 17:38:21;;;;;;;26.67;7.55;;;;;;;24.37;89.31;94610.84;6117414;23;20168;-86
2022/08/24 17:40:49;;;;;;;30.60;8.02;;;;;;;24.32;89.24;94598.47;6117519;23;20168;-86
2022/08/24 17:43:16;;;;;;;37.28;8.98;;;;;;;24.30;89.19;94616.56;6117006;23;20175;-76
2022/08/24 17:45:43;;;;;;;38.08;8.93;;;;;;;24.27;89.70;94625.19;6118139;23;20647;-81
2022/08/24 17:48:13;;;;;;;31.50;8.57;;;;;;;24.23;90.25;94624.22;6116811;23;20172;-88
2022/08/24 17:50:40;;;;;;;36.70;8.35;;;;;;;24.18;90.18;94622.44;6115702;23;20564;-81
2022/08/24 17:53:08;;;;;;;26.05;8.38;;;;;;;24.15;90.27;94620.44;6114452;23;20180;-80
2022/08/24 17:55:35;;;;;;;27.25;8.40;;;;;;;24.10;91.62;94631.16;6114400;23;20200;-81
2022/08/24 17:58:02;;;;;;;28.63;9.20;;;;;;;24.03;91.68;94635.31;6114425;23;20531;-81
2022/08/24 18:00:29;;;;;;;37.03;9.73;;;;;;;23.93;92.17;94636.31;6114301;23;20180;-82
2022/08/24 18:02:56;;;;;;;30.33;9.57;;;;;;;23.87;92.81;94632.22;6114765;23;20168;-82
2022/08/24 18:05:23;;;;;;;34.90;9.80;;;;;;;23.80;93.45;94639.03;6114696;23;20647;-81
2022/08/24 18:07:53;;;;;;;37.67;9.93;;;;;;;23.75;94.06;94655.88;6114563;23;20706;-82
2022/08/24 18:10:25;;;;;;;31.63;10.10;;;;;;;23.72;95.69;94654.56;6114231;23;20179;-81
2022/08/24 18:12:52;;;;;;;31.10;10.05;;;;;;;23.92;94.88;94652.56;6113559;23;20519;-79
2022/08/24 18:15:19;;;;;;;34.20;9.68;;;;;;;23.94;94.38;94648.53;6113668;23;20193;-79
2022/08/24 18:17:50;;;;;;;27.08;9.43;;;;;;;23.94;94.65;94666.31;6113023;23;20171;-80
2022/08/24 18:20:23;;;;;;;30.48;9.38;;;;;;;23.88;94.53;94656.91;6112628;23;20165;-78
2022/08/24 18:22:50;;;;;;;32.05;10.15;;;;;;;23.72;95.45;94651.91;6112247;23;20161;-80
2022/08/24 18:25:19;;;;;;;35.92;9.23;;;;;;;23.78;95.47;94657.91;6112591;23;20165;-79
2022/08/24 18:27:48;;;;;;;28.55;9.18;;;;;;;23.71;95.99;94658.34;6111156;23;20172;-74
2022/08/24 18:30:19;;;;;;;31.00;9.73;;;;;;;23.71;95.18;94668.97;6110754;23;20687;-75
2022/08/24 18:32:46;;;;;;;34.92;9.32;;;;;;;23.68;95.24;94656.28;6111269;23;20187;-76
2022/08/24 18:35:13;;;;;;;36.92;9.98;;;;;;;23.59;96.73;94658.06;6111400;23;20285;-76
2022/08/24 18:37:41;;;;;;;33.50;10.07;;;;;;;23.49;97.95;94662.81;6112456;23;20167;-75
2022/08/24 18:40:11;;;;;;;42.90;11.10;;;;;;;23.42;98.05;94670.38;6111125;23;20558;-75
2022/08/24 18:42:41;;;;;;;39.25;10.43;;;;;;;23.32;99.38;94670.59;6111633;23;20370;-75
2022/08/24 18:45:14;;;;;;;36.83;10.93;;;;;;;23.22;100.00;94665.47;6111256;23;20152;-77
2022/08/24 18:47:41;;;;;;;37.72;10.75;;;;;;;23.27;99.27;94666.16;6112432;23;20790;-83
2022/08/24 18:50:09;;;;;;;34.35;10.93;;;;;;;23.32;98.82;94663.38;6113877;23;20678;-79
2022/08/24 18:52:37;;;;;;;36.17;10.77;;;;;;;23.29;100.00;94668.53;6114380;23;20166;-81
2022/08/24 18:55:05;;;;;;;42.17;10.77;;;;;;;23.22;100.00;94674.22;6113286;23;20703;-79
2022/08/24 18:57:32;;;;;;;41.60;12.25;;;;;;;23.18;100.00;94676.66;6112933;23;20270;-78